createdAt,value
2022-11-02T00:00:42.365Z,90.30
2022-11-02T00:02:40.746Z,90.20
2022-11-02T00:04:40.534Z,90.52
2022-11-02T00:06:38.858Z,89.75
2022-11-02T00:08:37.314Z,89.69
2022-11-02T00:10:35.821Z,89.78
2022-11-02T00:12:34.058Z,90.21
2022-11-02T00:14:32.366Z,90.04
2022-11-02T00:16:31.044Z,89.17
2022-11-02T00:18:29.654Z,89.13
2022-11-02T00:20:29.798Z,88.88
2022-11-02T00:22:28.383Z,88.72
2022-11-02T00:24:26.771Z,88.70
2022-11-02T00:26:25.881Z,88.48
2022-11-02T00:28:24.556Z,89.08
2022-11-02T00:30:23.410Z,89.22
2022-11-02T00:32:22.376Z,89.00
2022-11-02T00:34:21.397Z,89.12
2022-11-02T00:36:21.886Z,89.45
2022-11-02T00:38:20.410Z,89.55
2022-11-02T00:40:18.998Z,89.70
2022-11-02T00:42:17.470Z,89.41
2022-11-02T00:44:15.845Z,89.56
2022-11-02T00:46:14.630Z,89.55
2022-11-02T00:48:13.419Z,89.97
2022-11-02T00:50:11.828Z,90.55
2022-11-02T00:52:12.975Z,90.86
2022-11-02T00:54:11.665Z,91.05
2022-11-02T00:56:10.086Z,91.45
2022-11-02T00:58:08.592Z,91.21
2022-11-02T01:00:08.311Z,91.21
2022-11-02T01:02:06.650Z,91.25
2022-11-02T01:04:05.379Z,91.14
2022-11-02T01:06:09.802Z,91.38
2022-11-02T01:08:10.186Z,91.21
2022-11-02T01:10:10.011Z,91.13
2022-11-02T01:12:08.761Z,91.65
2022-11-02T01:14:07.165Z,92.09
2022-11-02T01:16:06.132Z,92.08
2022-11-02T01:18:05.376Z,92.14
2022-11-02T01:20:05.162Z,91.81
2022-11-02T01:22:03.444Z,91.90
2022-11-02T01:24:03.164Z,91.43
2022-11-02T01:26:04.704Z,91.51
2022-11-02T01:28:03.022Z,90.96
2022-11-02T01:30:01.599Z,90.49
2022-11-02T01:31:59.977Z,90.02
2022-11-02T01:33:58.487Z,89.96
2022-11-02T01:35:58.053Z,90.42
2022-11-02T01:37:56.310Z,90.67
2022-11-02T01:39:55.930Z,91.19
2022-11-02T01:41:55.462Z,90.63
2022-11-02T01:43:59.045Z,90.54
2022-11-02T01:46:02.999Z,90.51
2022-11-02T01:48:01.790Z,90.50
2022-11-02T01:50:06.062Z,91.24
2022-11-02T01:52:08.390Z,90.62
2022-11-02T01:54:10.804Z,90.77
2022-11-02T01:56:13.332Z,90.65
2022-11-02T01:58:13.500Z,91.45
2022-11-02T02:00:15.350Z,91.53
2022-11-02T02:02:19.370Z,91.99
2022-11-02T02:04:18.167Z,92.14
2022-11-02T02:06:18.076Z,92.56
2022-11-02T02:08:19.168Z,92.79
2022-11-02T02:10:17.532Z,92.91
2022-11-02T02:12:17.045Z,93.03
2022-11-02T02:14:18.233Z,93.13
2022-11-02T02:16:27.789Z,93.00
2022-11-02T02:18:34.414Z,93.03
2022-11-02T02:20:47.907Z,93.05
2022-11-02T02:23:21.180Z,93.35
2022-11-02T02:25:54.070Z,93.35
2022-11-02T02:28:10.743Z,93.69
2022-11-02T02:30:10.602Z,94.07
2022-11-02T02:32:16.452Z,93.73
2022-11-02T02:34:19.567Z,93.67
2022-11-02T02:36:23.157Z,93.54
2022-11-02T02:38:29.582Z,92.89
2022-11-02T02:40:34.605Z,92.66
2022-11-02T02:42:37.502Z,92.38
2022-11-02T02:44:39.615Z,92.20
2022-11-02T02:46:42.988Z,92.36
2022-11-02T02:48:44.904Z,92.55
2022-11-02T02:50:48.813Z,93.01
2022-11-02T02:52:52.165Z,93.03
2022-11-02T02:54:53.702Z,93.28
2022-11-02T02:56:55.871Z,92.74
2022-11-02T02:58:59.604Z,92.45
2022-11-02T03:01:01.895Z,92.41
2022-11-02T03:03:02.197Z,92.68
2022-11-02T03:05:00.443Z,92.69
2022-11-02T03:07:02.495Z,92.93
2022-11-02T03:09:20.069Z,93.67
2022-11-02T03:11:23.413Z,94.24
2022-11-02T03:13:36.749Z,94.57
2022-11-02T03:15:41.881Z,94.73
2022-11-02T03:17:51.207Z,95.00
2022-11-02T03:19:55.408Z,94.22
2022-11-02T03:22:01.783Z,94.91
2022-11-02T03:24:06.533Z,94.55
2022-11-02T03:26:09.006Z,94.52
2022-11-02T03:28:17.553Z,94.75
2022-11-02T03:30:19.137Z,94.40
2022-11-02T03:32:25.774Z,94.93
2022-11-02T03:34:29.995Z,95.19
2022-11-02T03:36:36.193Z,95.42
2022-11-02T03:38:37.328Z,95.70
2022-11-02T03:40:41.791Z,95.98
2022-11-02T03:42:43.031Z,95.75
2022-11-02T03:44:42.992Z,95.69
2022-11-02T03:46:44.999Z,95.51
2022-11-02T03:48:49.481Z,95.42
2022-11-02T03:50:53.502Z,95.64
2022-11-02T03:52:58.879Z,95.69
2022-11-02T03:55:04.965Z,95.56
2022-11-02T03:57:08.612Z,95.60
2022-11-02T03:59:07.266Z,96.14
2022-11-02T04:01:09.444Z,96.29
2022-11-02T04:03:13.237Z,96.31
2022-11-02T04:05:15.875Z,96.24
2022-11-02T04:07:21.044Z,96.08
2022-11-02T04:09:19.611Z,95.68
2022-11-02T04:11:35.491Z,95.42
2022-11-02T04:13:55.987Z,94.95
2022-11-02T04:15:56.314Z,95.55
2022-11-02T04:18:12.148Z,95.84
2022-11-02T04:20:11.761Z,96.27
2022-11-02T04:22:28.008Z,96.66
2022-11-02T04:24:52.770Z,97.24
2022-11-02T04:26:51.338Z,96.85
2022-11-02T04:28:49.878Z,96.68
2022-11-02T04:30:49.053Z,96.57
2022-11-02T04:33:17.230Z,96.42
2022-11-02T04:35:21.748Z,96.70
2022-11-02T04:37:33.747Z,96.81
2022-11-02T04:39:32.162Z,96.82
2022-11-02T04:41:43.437Z,97.45
2022-11-02T04:43:56.833Z,98.35
2022-11-02T04:45:58.983Z,97.39
2022-11-02T04:48:02.101Z,97.21
2022-11-02T04:50:00.733Z,97.12
2022-11-02T04:51:59.703Z,97.53
2022-11-02T04:54:00.269Z,97.61
2022-11-02T04:55:59.497Z,97.37
2022-11-02T04:57:59.387Z,97.24
2022-11-02T04:59:58.090Z,97.26
2022-11-02T05:01:56.571Z,97.43
2022-11-02T05:03:56.147Z,97.78
2022-11-02T05:05:56.579Z,97.70
2022-11-02T05:07:55.709Z,97.39
2022-11-02T05:09:54.466Z,97.16
2022-11-02T05:11:54.458Z,97.21
2022-11-02T05:13:54.362Z,96.85
2022-11-02T05:15:53.149Z,96.83
2022-11-02T05:17:51.700Z,96.63
2022-11-02T05:19:49.910Z,96.48
2022-11-02T05:21:49.415Z,95.85
2022-11-02T05:23:49.027Z,95.43
2022-11-02T05:25:54.772Z,95.28
2022-11-02T05:27:54.424Z,94.91
2022-11-02T05:29:54.933Z,94.72
2022-11-02T05:31:53.772Z,92.97
2022-11-02T05:33:52.556Z,90.26
2022-11-02T05:35:53.058Z,88.55
2022-11-02T05:37:51.361Z,86.35
2022-11-02T05:39:50.617Z,83.66
2022-11-02T05:41:49.340Z,79.99
2022-11-02T05:43:47.950Z,76.34
2022-11-02T05:45:53.131Z,74.51
2022-11-02T05:47:51.381Z,72.94
2022-11-02T05:49:53.269Z,71.02
2022-11-02T05:51:51.630Z,69.28
2022-11-02T05:53:51.030Z,67.02
2022-11-02T05:55:50.041Z,65.99
2022-11-02T05:57:52.181Z,65.58
2022-11-02T05:59:50.585Z,64.59
2022-11-02T06:01:51.754Z,64.25
2022-11-02T06:03:53.487Z,61.95
2022-11-02T06:05:58.050Z,60.70
2022-11-02T06:07:58.719Z,58.58
2022-11-02T06:09:56.984Z,57.29
2022-11-02T06:11:56.943Z,57.00
2022-11-02T06:13:55.200Z,56.14
2022-11-02T06:15:53.510Z,55.88
2022-11-02T06:17:53.294Z,55.66
2022-11-02T06:19:52.090Z,55.30
2022-11-02T06:21:50.294Z,55.13
2022-11-02T06:23:49.269Z,53.41
2022-11-02T06:25:52.284Z,53.50
2022-11-02T06:27:54.977Z,54.03
2022-11-02T06:29:54.095Z,52.12
2022-11-02T06:31:52.275Z,52.22
2022-11-02T06:33:51.939Z,52.03
2022-11-02T06:35:52.150Z,51.08
2022-11-02T06:37:50.343Z,48.82
2022-11-02T06:39:48.769Z,47.63
2022-11-02T06:41:46.889Z,47.58
2022-11-02T06:43:45.357Z,50.24
2022-11-02T06:45:43.669Z,49.31
2022-11-02T06:47:41.868Z,49.71
2022-11-02T06:49:41.754Z,51.25
2022-11-02T06:51:40.236Z,51.56
2022-11-02T06:53:38.480Z,54.56
2022-11-02T06:55:36.755Z,57.45
2022-11-02T06:57:37.765Z,57.24
2022-11-02T06:59:35.932Z,59.20
2022-11-02T07:01:35.305Z,61.40
2022-11-02T07:03:34.125Z,62.63
2022-11-02T07:05:34.880Z,62.30
2022-11-02T07:07:33.149Z,63.26
2022-11-02T07:09:31.514Z,63.39
2022-11-02T07:11:29.791Z,65.16
2022-11-02T07:13:27.960Z,64.69
2022-11-02T07:15:27.566Z,63.97
2022-11-02T07:17:29.610Z,63.90
2022-11-02T07:19:30.423Z,64.07
2022-11-02T07:21:29.884Z,64.17
2022-11-02T07:23:28.183Z,63.66
2022-11-02T07:25:28.392Z,63.59
2022-11-02T07:27:26.715Z,63.44
2022-11-02T07:29:25.095Z,63.90
2022-11-02T07:31:23.458Z,64.27
2022-11-02T07:33:21.550Z,62.38
2022-11-02T07:35:20.134Z,56.58
2022-11-02T07:37:19.919Z,52.68
2022-11-02T07:39:19.097Z,49.88
2022-11-02T07:41:17.512Z,46.74
2022-11-02T07:43:15.796Z,43.90
2022-11-02T07:45:24.340Z,42.64
2022-11-02T07:47:22.691Z,42.61
2022-11-02T07:49:21.753Z,42.93
2022-11-02T07:51:20.090Z,41.12
2022-11-02T07:53:19.866Z,39.76
2022-11-02T07:55:20.178Z,39.40
2022-11-02T07:57:18.701Z,39.29
2022-11-02T07:59:17.134Z,38.48
2022-11-02T08:01:15.865Z,39.54
2022-11-02T08:03:14.874Z,39.27
2022-11-02T08:05:13.254Z,39.31
2022-11-02T08:07:11.605Z,38.71
2022-11-02T08:09:11.260Z,37.19
2022-11-02T08:11:10.651Z,36.07
2022-11-02T08:13:10.189Z,35.01
2022-11-02T08:15:09.509Z,33.16
2022-11-02T08:17:07.777Z,34.31
2022-11-02T08:19:05.902Z,32.38
2022-11-02T08:21:04.718Z,33.03
2022-11-02T08:23:03.229Z,33.09
2022-11-02T08:25:03.005Z,33.19
2022-11-02T08:27:02.058Z,33.78
2022-11-02T08:29:00.134Z,34.88
2022-11-02T08:30:59.160Z,35.09
2022-11-02T08:32:57.568Z,33.56
2022-11-02T08:34:56.676Z,33.35
2022-11-02T08:36:54.951Z,33.21
2022-11-02T08:38:53.006Z,32.86
2022-11-02T08:40:52.785Z,33.66
2022-11-02T08:42:56.398Z,34.29
2022-11-02T08:44:56.398Z,33.40
2022-11-02T08:46:56.578Z,31.86
2022-11-02T08:48:54.827Z,31.76
2022-11-02T08:50:53.108Z,31.74
2022-11-02T08:52:51.564Z,32.47
2022-11-02T08:54:49.747Z,32.71
2022-11-02T08:56:49.639Z,32.89
2022-11-02T08:58:48.156Z,31.58
2022-11-02T09:00:46.505Z,30.37
2022-11-02T09:02:45.215Z,29.74
2022-11-02T09:04:43.828Z,29.34
2022-11-02T09:06:42.002Z,28.37
2022-11-02T09:08:40.243Z,27.25
2022-11-02T09:10:38.908Z,26.72
2022-11-02T09:12:38.656Z,27.00
2022-11-02T09:14:36.710Z,27.20
2022-11-02T09:16:40.185Z,27.84
2022-11-02T09:18:39.783Z,26.98
2022-11-02T09:20:38.986Z,28.32
2022-11-02T09:22:38.016Z,26.15
2022-11-02T09:24:36.784Z,25.28
2022-11-02T09:26:35.518Z,25.38
2022-11-02T09:28:35.451Z,25.50
2022-11-02T09:30:34.348Z,25.64
2022-11-02T09:32:33.891Z,26.04
2022-11-02T09:34:32.342Z,27.19
2022-11-02T09:36:33.008Z,25.11
2022-11-02T09:38:31.756Z,24.86
2022-11-02T09:40:32.917Z,25.46
2022-11-02T09:42:41.114Z,25.63
2022-11-02T09:44:49.036Z,25.16
2022-11-02T09:46:53.884Z,25.11
2022-11-02T09:49:12.766Z,24.68
2022-11-02T09:51:15.718Z,24.04
2022-11-02T09:53:19.247Z,23.27
2022-11-02T09:55:23.205Z,23.13
2022-11-02T09:57:28.774Z,23.20
2022-11-02T09:59:28.203Z,23.42
2022-11-02T10:01:59.027Z,25.33
2022-11-02T10:04:17.312Z,25.49
2022-11-02T10:06:20.483Z,23.98
2022-11-02T10:08:31.747Z,24.42
2022-11-02T10:10:35.956Z,23.78
2022-11-02T10:12:44.188Z,22.52
2022-11-02T10:14:52.000Z,22.25
2022-11-02T10:16:56.422Z,22.94
2022-11-02T10:18:55.905Z,23.12
2022-11-02T10:20:58.535Z,23.21
2022-11-02T10:23:03.806Z,23.33
2022-11-02T10:25:05.543Z,22.72
2022-11-02T10:27:13.994Z,22.69
2022-11-02T10:29:19.001Z,23.43
2022-11-02T10:31:24.949Z,22.46
2022-11-02T10:33:28.025Z,23.03
2022-11-02T10:35:45.875Z,22.14
2022-11-02T10:38:13.593Z,22.48
2022-11-02T10:40:27.322Z,23.07
2022-11-02T10:42:49.825Z,23.42
2022-11-02T10:45:07.485Z,24.67
2022-11-02T10:47:14.468Z,26.72
2022-11-02T10:49:22.609Z,28.61
2022-11-02T10:51:22.190Z,30.29
2022-11-02T10:55:47.226Z,31.70
2022-11-02T10:57:45.841Z,32.52
2022-11-02T10:59:44.189Z,33.12
2022-11-02T11:01:48.757Z,34.03
2022-11-02T11:04:01.264Z,34.49
2022-11-02T11:06:03.914Z,34.10
2022-11-02T11:08:03.370Z,33.69
2022-11-02T11:10:01.849Z,33.93
2022-11-02T11:12:03.074Z,33.41
2022-11-02T11:16:33.760Z,32.86
2022-11-02T11:20:56.850Z,32.95
2022-11-02T11:23:17.642Z,32.65
2022-11-02T11:25:27.962Z,32.75
2022-11-02T11:27:26.754Z,32.29
2022-11-02T11:29:25.273Z,30.94
2022-11-02T11:31:24.252Z,30.51
2022-11-02T11:33:23.279Z,31.41
2022-11-02T11:35:22.538Z,31.52
2022-11-02T11:37:21.194Z,31.09
2022-11-02T11:39:27.796Z,29.96
2022-11-02T11:41:26.498Z,29.96
2022-11-02T11:43:27.532Z,29.49
2022-11-02T11:45:28.215Z,29.63
2022-11-02T11:47:32.447Z,28.92
2022-11-02T11:50:08.954Z,28.80
2022-11-02T11:51:53.944Z,28.83
2022-11-02T11:54:07.492Z,28.07
2022-11-02T11:56:07.732Z,28.42
2022-11-02T11:58:07.943Z,28.08
2022-11-02T12:00:28.121Z,28.24
2022-11-02T12:02:28.554Z,28.46
2022-11-02T12:04:35.514Z,28.57
2022-11-02T12:06:44.133Z,28.31
2022-11-02T12:08:52.747Z,28.31
2022-11-02T12:11:01.776Z,28.50
2022-11-02T12:13:21.027Z,28.72
2022-11-02T12:15:32.828Z,28.92
2022-11-02T12:17:49.260Z,28.52
2022-11-02T12:20:02.447Z,28.74
2022-11-02T12:22:08.899Z,29.11
2022-11-02T12:24:23.730Z,28.89
2022-11-02T12:26:32.708Z,29.47
2022-11-02T12:28:42.444Z,29.66
2022-11-02T12:30:51.864Z,29.65
2022-11-02T12:33:09.906Z,29.90
2022-11-02T12:35:29.822Z,29.65
2022-11-02T12:37:47.767Z,30.14
2022-11-02T12:40:02.132Z,30.07
2022-11-02T12:42:15.274Z,30.38
2022-11-02T12:44:47.189Z,30.11
2022-11-02T12:46:51.508Z,30.44
2022-11-02T12:49:09.353Z,30.24
2022-11-02T12:51:13.796Z,30.23
2022-11-02T12:53:26.364Z,30.39
2022-11-02T12:55:34.309Z,30.46
2022-11-02T12:57:39.503Z,30.38
2022-11-02T12:59:43.408Z,30.27
2022-11-02T13:01:44.520Z,30.61
2022-11-02T13:03:51.610Z,30.56
2022-11-02T13:05:55.800Z,29.80
2022-11-02T13:08:04.764Z,30.13
2022-11-02T13:10:08.445Z,30.39
2022-11-02T13:12:10.497Z,30.11
2022-11-02T13:14:15.712Z,30.12
2022-11-02T13:16:18.983Z,30.05
2022-11-02T13:18:21.781Z,30.63
2022-11-02T13:20:23.014Z,30.79
2022-11-02T13:22:23.084Z,30.58
2022-11-02T13:24:28.022Z,30.74
2022-11-02T13:26:33.531Z,30.63
2022-11-02T13:28:40.203Z,30.73
2022-11-02T13:30:40.998Z,31.53
2022-11-02T13:32:45.090Z,30.68
2022-11-02T13:34:45.592Z,31.83
2022-11-02T13:36:45.259Z,30.73
2022-11-02T13:38:48.339Z,31.45
2022-11-02T13:40:51.249Z,31.36
2022-11-02T13:43:11.705Z,31.10
2022-11-02T13:45:35.705Z,31.22
2022-11-02T13:47:57.707Z,31.27
2022-11-02T13:49:58.785Z,31.09
2022-11-02T13:52:03.537Z,31.76
2022-11-02T13:54:05.910Z,31.88
2022-11-02T13:56:09.805Z,32.63
2022-11-02T13:58:08.289Z,32.80
2022-11-02T14:00:27.406Z,31.92
2022-11-02T14:02:26.746Z,32.80
2022-11-02T14:04:30.981Z,33.03
2022-11-02T14:06:29.631Z,32.45
2022-11-02T14:08:36.726Z,32.90
2022-11-02T14:10:38.554Z,33.55
2022-11-02T14:12:43.897Z,33.03
2022-11-02T14:14:42.447Z,33.08
2022-11-02T14:16:58.729Z,33.41
2022-11-02T14:19:19.457Z,34.60
2022-11-02T14:22:05.670Z,34.00
2022-11-02T14:24:04.182Z,34.19
2022-11-02T14:26:02.560Z,34.67
2022-11-02T14:28:45.096Z,35.59
2022-11-02T14:30:48.897Z,34.22
2022-11-02T14:32:59.759Z,34.15
2022-11-02T14:35:15.356Z,34.49
2022-11-02T14:37:31.665Z,35.39
2022-11-02T14:39:42.061Z,34.83
2022-11-02T14:42:02.395Z,35.60
2022-11-02T14:44:25.893Z,35.39
2022-11-02T14:46:44.118Z,36.13
2022-11-02T14:48:49.047Z,35.89
2022-11-02T14:51:02.103Z,36.41
2022-11-02T14:53:08.192Z,36.94
2022-11-02T14:55:10.590Z,36.58
2022-11-02T14:57:22.233Z,37.17
2022-11-02T14:59:27.107Z,37.43
2022-11-02T15:01:25.794Z,37.43
2022-11-02T15:03:32.554Z,37.56
2022-11-02T15:05:35.099Z,38.16
2022-11-02T15:07:37.095Z,38.43
2022-11-02T15:09:58.979Z,39.29
2022-11-02T15:11:59.300Z,39.77
2022-11-02T15:13:57.640Z,39.97
2022-11-02T15:16:22.212Z,39.85
2022-11-02T15:18:32.607Z,39.93
2022-11-02T15:20:33.231Z,39.95
2022-11-02T15:22:37.421Z,40.53
2022-11-02T15:24:35.934Z,40.73
2022-11-02T15:26:42.270Z,40.99
2022-11-02T15:28:43.965Z,41.18
2022-11-02T15:30:46.570Z,41.15
2022-11-02T15:32:50.897Z,41.30
2022-11-02T15:34:52.148Z,41.73
2022-11-02T15:37:03.386Z,41.88
2022-11-02T15:39:05.946Z,41.97
2022-11-02T15:41:14.850Z,42.17
2022-11-02T15:43:27.994Z,42.46
2022-11-02T15:45:59.380Z,43.44
2022-11-02T15:48:08.931Z,44.50
2022-11-02T15:50:41.765Z,44.73
2022-11-02T15:53:22.206Z,45.63
2022-11-02T15:55:25.272Z,45.43
2022-11-02T15:57:40.504Z,45.49
2022-11-02T16:00:21.792Z,46.11
2022-11-02T16:02:28.086Z,46.63
2022-11-02T16:04:29.002Z,46.69
2022-11-02T16:06:29.635Z,46.98
2022-11-02T16:08:34.189Z,47.44
2022-11-02T16:10:35.655Z,47.59
2022-11-02T16:12:36.002Z,47.59
2022-11-02T16:14:34.241Z,47.48
2022-11-02T16:16:35.922Z,47.56
2022-11-02T16:18:38.369Z,48.16
2022-11-02T16:20:39.991Z,47.15
2022-11-02T16:22:38.800Z,47.52
2022-11-02T16:26:40.690Z,47.96
2022-11-02T16:28:40.156Z,48.11
2022-11-02T16:30:38.817Z,48.56
2022-11-02T16:32:37.356Z,49.24
2022-11-02T16:34:35.734Z,48.73
2022-11-02T16:36:38.640Z,48.27
2022-11-02T16:38:38.021Z,48.67
2022-11-02T16:40:37.777Z,48.58
2022-11-02T16:42:36.044Z,49.00
2022-11-02T16:44:35.230Z,49.03
2022-11-02T16:46:43.198Z,49.07
2022-11-02T16:48:41.497Z,49.13
2022-11-02T16:50:39.812Z,49.36
2022-11-02T16:52:39.584Z,49.06
2022-11-02T16:54:41.866Z,48.44
2022-11-02T16:56:40.068Z,48.23
2022-11-02T16:58:38.373Z,48.56
2022-11-02T17:00:39.529Z,48.53
2022-11-02T17:02:40.363Z,48.23
2022-11-02T17:04:42.817Z,48.69
2022-11-02T17:06:42.197Z,48.66
2022-11-02T17:08:44.155Z,48.18
2022-11-02T17:10:45.260Z,48.23
2022-11-02T17:12:45.523Z,48.06
2022-11-02T17:14:46.034Z,48.64
2022-11-02T17:16:58.699Z,48.65
2022-11-02T17:18:57.023Z,49.25
2022-11-02T17:21:25.377Z,48.59
2022-11-02T17:23:33.450Z,48.80
2022-11-02T17:25:34.760Z,48.47
2022-11-02T17:27:39.207Z,48.60
2022-11-02T17:29:41.869Z,48.96
2022-11-02T17:31:41.376Z,49.17
2022-11-02T17:33:44.564Z,49.55
2022-11-02T17:35:47.452Z,48.85
2022-11-02T17:37:45.743Z,49.61
2022-11-02T17:39:43.986Z,49.26
2022-11-02T17:42:01.356Z,50.06
2022-11-02T17:43:59.935Z,49.23
2022-11-02T17:45:59.165Z,48.90
2022-11-02T17:47:58.784Z,49.12
2022-11-02T17:49:57.029Z,49.17
2022-11-02T17:51:55.213Z,49.28
2022-11-02T17:53:53.713Z,49.26
2022-11-02T17:55:52.122Z,49.56
2022-11-02T17:57:51.998Z,49.59
2022-11-02T17:59:51.671Z,49.84
2022-11-02T18:01:50.086Z,50.01
2022-11-02T18:03:48.389Z,49.41
2022-11-02T18:05:50.818Z,49.37
2022-11-02T18:07:50.844Z,49.43
2022-11-02T18:09:49.252Z,49.01
2022-11-02T18:11:47.643Z,49.36
2022-11-02T18:13:47.339Z,48.94
2022-11-02T18:15:46.331Z,49.51
2022-11-02T18:17:44.733Z,50.06
2022-11-02T18:19:42.947Z,50.00
2022-11-02T18:21:41.211Z,50.05
2022-11-02T18:23:41.019Z,49.58
2022-11-02T18:25:39.658Z,49.79
2022-11-02T18:27:37.973Z,49.82
2022-11-02T18:29:37.804Z,50.39
2022-11-02T18:31:37.447Z,50.28
2022-11-02T18:33:36.025Z,51.52
2022-11-02T18:35:34.398Z,52.33
2022-11-02T18:37:33.201Z,51.31
2022-11-02T18:39:34.368Z,51.38
2022-11-02T18:41:35.063Z,51.52
2022-11-02T18:43:33.253Z,52.09
2022-11-02T18:45:33.021Z,52.60
2022-11-02T18:47:31.903Z,52.47
2022-11-02T18:49:30.070Z,52.58
2022-11-02T18:51:28.693Z,52.33
2022-11-02T18:53:26.878Z,52.81
2022-11-02T18:55:25.042Z,52.77
2022-11-02T18:57:27.904Z,52.75
2022-11-02T18:59:26.606Z,52.97
2022-11-02T19:01:26.993Z,52.78
2022-11-02T19:03:25.406Z,53.10
2022-11-02T19:05:40.885Z,52.71
2022-11-02T19:08:11.307Z,52.56
2022-11-02T19:10:11.145Z,52.66
2022-11-02T19:12:11.641Z,52.42
2022-11-02T19:14:10.027Z,52.59
2022-11-02T19:16:08.611Z,52.63
2022-11-02T19:18:08.514Z,52.89
2022-11-02T19:20:08.539Z,52.79
2022-11-02T19:22:06.843Z,52.83
2022-11-02T19:24:06.773Z,53.01
2022-11-02T19:26:05.495Z,53.04
2022-11-02T19:28:05.216Z,53.21
2022-11-02T19:30:11.685Z,52.80
2022-11-02T19:32:13.336Z,54.91
2022-11-02T19:34:13.168Z,54.90
2022-11-02T19:36:11.359Z,54.12
2022-11-02T19:38:12.492Z,53.43
2022-11-02T19:40:12.360Z,53.06
2022-11-02T19:42:10.748Z,52.54
2022-11-02T19:44:09.110Z,52.71
2022-11-02T19:46:08.709Z,52.35
2022-11-02T19:48:07.377Z,52.50
2022-11-02T19:50:10.631Z,52.36
2022-11-02T19:52:08.923Z,51.77
2022-11-02T19:54:08.206Z,51.88
2022-11-02T19:56:10.338Z,52.14
2022-11-02T19:58:08.797Z,52.25
2022-11-02T20:00:10.344Z,52.16
2022-11-02T20:02:10.615Z,51.67
2022-11-02T20:04:09.122Z,52.21
2022-11-02T20:06:11.984Z,52.26
2022-11-02T20:08:10.835Z,52.63
2022-11-02T20:10:10.139Z,52.63
2022-11-02T20:12:09.071Z,52.37
2022-11-02T20:14:07.367Z,52.25
2022-11-02T20:16:07.903Z,52.21
2022-11-02T20:18:18.974Z,51.97
2022-11-02T20:20:18.423Z,52.19
2022-11-02T20:22:18.929Z,51.79
2022-11-02T20:24:17.114Z,52.01
2022-11-02T20:26:17.693Z,52.22
2022-11-02T20:28:16.244Z,52.32
2022-11-02T20:30:14.775Z,52.22
2022-11-02T20:32:13.204Z,52.03
2022-11-02T20:34:14.019Z,52.18
2022-11-02T20:36:12.746Z,51.94
2022-11-02T20:38:12.498Z,51.86
2022-11-02T20:40:11.975Z,51.57
2022-11-02T20:42:11.213Z,51.26
2022-11-02T20:44:09.510Z,51.71
2022-11-02T20:46:35.834Z,51.78
2022-11-02T20:48:28.543Z,51.56
2022-11-02T20:50:27.076Z,51.87
2022-11-02T20:52:25.335Z,51.97
2022-11-02T20:54:25.365Z,51.84
2022-11-02T20:56:24.836Z,51.76
2022-11-02T20:58:23.143Z,51.75
2022-11-02T21:00:21.693Z,51.48
2022-11-02T21:02:22.322Z,51.60
2022-11-02T21:04:21.841Z,51.60
2022-11-02T21:06:20.329Z,51.82
2022-11-02T21:08:22.232Z,51.99
2022-11-02T21:10:21.913Z,51.56
2022-11-02T21:12:38.004Z,51.66
2022-11-02T21:14:36.355Z,51.76
2022-11-02T21:16:35.311Z,52.09
2022-11-02T21:18:34.371Z,52.23
2022-11-02T21:20:34.638Z,51.87
2022-11-02T21:22:33.327Z,52.30
2022-11-02T21:24:31.486Z,52.59
2022-11-02T21:26:31.209Z,52.71
2022-11-02T21:28:30.517Z,52.83
2022-11-02T21:30:31.078Z,52.56
2022-11-02T21:32:29.177Z,52.33
2022-11-02T21:34:27.776Z,52.28
2022-11-02T21:36:25.915Z,52.15
2022-11-02T21:38:24.308Z,51.67
2022-11-02T21:40:22.593Z,51.40
2022-11-02T21:42:22.203Z,51.28
2022-11-02T21:44:20.538Z,51.38
2022-11-02T21:46:20.216Z,51.44
2022-11-02T21:48:18.356Z,51.00
2022-11-02T21:50:16.746Z,51.23
2022-11-02T21:52:15.056Z,50.84
2022-11-02T21:54:13.359Z,50.85
2022-11-02T21:56:13.160Z,50.74
2022-11-02T21:58:14.355Z,50.53
2022-11-02T22:00:13.668Z,51.20
2022-11-02T22:02:10.879Z,51.01
2022-11-02T22:04:10.159Z,51.03
2022-11-02T22:06:09.025Z,50.97
2022-11-02T22:08:25.100Z,50.98
2022-11-02T22:10:23.560Z,51.07
2022-11-02T22:12:39.375Z,50.57
2022-11-02T22:14:39.712Z,50.56
2022-11-02T22:16:40.004Z,50.33
2022-11-02T22:18:38.555Z,50.25
2022-11-02T22:20:36.780Z,50.47
2022-11-02T22:22:35.382Z,50.52
2022-11-02T22:24:33.760Z,50.24
2022-11-02T22:26:33.397Z,50.01
2022-11-02T22:28:32.202Z,49.94
2022-11-02T22:30:32.310Z,49.69
2022-11-02T22:32:30.586Z,49.85
2022-11-02T22:34:28.915Z,49.77
2022-11-02T22:36:28.923Z,49.53
2022-11-02T22:38:44.369Z,49.42
2022-11-02T22:40:42.718Z,49.12
2022-11-02T22:42:42.573Z,49.00
2022-11-02T22:44:40.837Z,49.01
2022-11-02T22:46:41.873Z,49.21
2022-11-02T22:48:40.248Z,48.80
2022-11-02T22:50:38.547Z,48.71
2022-11-02T22:52:36.759Z,48.47
2022-11-02T22:54:34.908Z,48.53
2022-11-02T22:56:34.225Z,48.41
2022-11-02T22:58:34.037Z,48.62
2022-11-02T23:00:32.341Z,49.05
2022-11-02T23:02:31.989Z,48.77
2022-11-02T23:04:30.177Z,48.79
2022-11-02T23:06:29.025Z,49.16
2022-11-02T23:10:49.333Z,49.70
2022-11-02T23:12:51.708Z,50.00
2022-11-02T23:14:50.021Z,49.54
2022-11-02T23:16:48.637Z,49.40
2022-11-02T23:19:06.514Z,49.58
2022-11-02T23:21:04.999Z,49.97
2022-11-02T23:23:20.180Z,49.94
2022-11-02T23:25:19.429Z,49.96
2022-11-02T23:27:17.728Z,50.05
2022-11-02T23:29:33.390Z,50.08
2022-11-02T23:31:48.890Z,50.17
2022-11-02T23:33:48.411Z,50.60
2022-11-02T23:36:04.270Z,50.72
2022-11-02T23:38:04.289Z,51.12
2022-11-02T23:40:01.570Z,51.16
2022-11-02T23:41:59.732Z,51.43
2022-11-02T23:46:20.239Z,51.71
2022-11-02T23:48:18.424Z,51.49
2022-11-02T23:50:39.287Z,51.77
2022-11-02T23:52:55.576Z,52.00
2022-11-02T23:55:13.241Z,51.99
2022-11-02T23:57:11.561Z,52.08
2022-11-02T23:59:09.778Z,52.01
